createdAt,value
2022-07-28T00:01:19.920Z,52.18
2022-07-28T00:03:49.110Z,52.34
2022-07-28T00:06:18.631Z,52.68
2022-07-28T00:08:46.842Z,53.39
2022-07-28T00:11:15.218Z,54.34
2022-07-28T00:13:43.276Z,54.53
2022-07-28T00:16:11.596Z,54.31
2022-07-28T00:18:39.848Z,53.98
2022-07-28T00:21:08.272Z,53.76
2022-07-28T00:23:39.425Z,54.81
2022-07-28T00:26:09.505Z,55.13
2022-07-28T00:28:38.008Z,55.59
2022-07-28T00:31:12.406Z,55.21
2022-07-28T00:33:42.166Z,54.53
2022-07-28T00:36:11.690Z,54.32
2022-07-28T00:38:44.348Z,54.73
2022-07-28T00:41:14.274Z,55.20
2022-07-28T00:43:44.982Z,54.46
2022-07-28T00:46:14.429Z,54.57
2022-07-28T00:48:45.963Z,54.41
2022-07-28T00:51:16.333Z,54.48
2022-07-28T00:53:47.127Z,54.66
2022-07-28T00:56:15.856Z,55.33
2022-07-28T00:58:44.814Z,54.64
2022-07-28T01:01:16.003Z,54.91
2022-07-28T01:03:47.643Z,55.13
2022-07-28T01:06:36.764Z,55.46
2022-07-28T01:09:19.798Z,55.52
2022-07-28T01:12:02.536Z,55.91
2022-07-28T01:14:39.422Z,55.74
2022-07-28T01:17:27.814Z,55.24
2022-07-28T01:20:07.600Z,55.64
2022-07-28T01:22:42.172Z,56.33
2022-07-28T01:25:25.088Z,55.28
2022-07-28T01:28:13.655Z,55.62
2022-07-28T01:30:47.387Z,54.99
2022-07-28T01:33:21.287Z,55.26
2022-07-28T01:36:09.684Z,55.06
2022-07-28T01:38:40.412Z,55.43
2022-07-28T01:41:15.779Z,55.46
2022-07-28T01:43:58.017Z,55.96
2022-07-28T01:46:28.086Z,56.16
2022-07-28T01:48:59.103Z,56.58
2022-07-28T01:51:31.432Z,57.17
2022-07-28T01:54:02.893Z,57.42
2022-07-28T01:56:34.369Z,57.29
2022-07-28T01:59:09.883Z,57.36
2022-07-28T02:01:45.389Z,57.46
2022-07-28T02:04:19.685Z,55.80
2022-07-28T02:06:50.732Z,55.78
2022-07-28T02:09:22.272Z,55.85
2022-07-28T02:11:55.105Z,56.18
2022-07-28T02:14:25.886Z,57.29
2022-07-28T02:16:59.293Z,57.35
2022-07-28T02:19:30.247Z,57.41
2022-07-28T02:21:58.690Z,57.30
2022-07-28T02:24:30.986Z,57.53
2022-07-28T02:27:04.250Z,58.06
2022-07-28T02:29:51.682Z,58.74
2022-07-28T02:32:33.027Z,58.06
2022-07-28T02:35:09.560Z,58.43
2022-07-28T02:37:41.994Z,58.41
2022-07-28T02:40:15.973Z,58.51
2022-07-28T02:42:49.752Z,58.09
2022-07-28T02:45:26.316Z,59.13
2022-07-28T02:48:02.792Z,59.24
2022-07-28T02:50:31.197Z,59.02
2022-07-28T02:53:15.518Z,59.34
2022-07-28T02:55:47.370Z,59.51
2022-07-28T02:58:21.990Z,59.41
2022-07-28T03:00:52.681Z,59.53
2022-07-28T03:03:24.808Z,59.65
2022-07-28T03:05:53.805Z,60.14
2022-07-28T03:08:22.022Z,60.40
2022-07-28T03:10:50.263Z,60.70
2022-07-28T03:13:18.379Z,61.48
2022-07-28T03:15:46.485Z,61.20
2022-07-28T03:18:14.564Z,61.48
2022-07-28T03:20:43.983Z,61.17
2022-07-28T03:23:12.271Z,61.24
2022-07-28T03:25:47.249Z,60.80
2022-07-28T03:28:21.041Z,60.28
2022-07-28T03:31:02.896Z,60.86
2022-07-28T03:33:31.206Z,60.66
2022-07-28T03:36:10.295Z,60.99
2022-07-28T03:38:44.747Z,61.05
2022-07-28T03:41:16.033Z,60.18
2022-07-28T03:43:45.847Z,60.31
2022-07-28T03:46:14.549Z,60.49
2022-07-28T03:48:42.857Z,60.30
2022-07-28T03:51:12.397Z,60.30
2022-07-28T03:53:42.634Z,60.20
2022-07-28T03:56:10.757Z,60.28
2022-07-28T03:58:39.054Z,60.28
2022-07-28T04:01:07.226Z,60.30
2022-07-28T04:03:43.741Z,59.71
2022-07-28T04:06:15.089Z,60.08
2022-07-28T04:08:43.553Z,60.12
2022-07-28T04:11:11.748Z,60.61
2022-07-28T04:13:39.855Z,60.16
2022-07-28T04:16:08.411Z,59.14
2022-07-28T04:18:36.765Z,58.45
2022-07-28T04:21:05.914Z,58.35
2022-07-28T04:23:35.480Z,57.67
2022-07-28T04:26:03.589Z,56.67
2022-07-28T04:28:31.701Z,56.77
2022-07-28T04:31:00.017Z,56.65
2022-07-28T04:33:28.187Z,57.03
2022-07-28T04:35:56.238Z,56.49
2022-07-28T04:38:24.355Z,56.36
2022-07-28T04:40:53.790Z,56.57
2022-07-28T04:43:22.907Z,56.82
2022-07-28T04:45:54.232Z,56.49
2022-07-28T04:48:23.940Z,55.00
2022-07-28T04:50:53.642Z,55.81
2022-07-28T04:53:22.869Z,55.90
2022-07-28T04:55:53.611Z,55.38
2022-07-28T04:58:24.996Z,54.53
2022-07-28T05:00:53.448Z,54.39
2022-07-28T05:03:22.284Z,52.44
2022-07-28T05:05:54.405Z,50.98
2022-07-28T05:08:25.765Z,47.96
2022-07-28T05:10:56.544Z,46.29
2022-07-28T05:13:31.821Z,44.49
2022-07-28T05:16:02.433Z,44.42
2022-07-28T05:18:30.773Z,44.03
2022-07-28T05:20:59.057Z,44.09
2022-07-28T05:23:27.528Z,43.44
2022-07-28T05:25:55.631Z,43.40
2022-07-28T05:28:25.386Z,43.87
2022-07-28T05:30:54.139Z,44.21
2022-07-28T05:33:22.548Z,45.12
2022-07-28T05:35:57.445Z,45.86
2022-07-28T05:38:26.047Z,46.35
2022-07-28T05:40:54.507Z,46.75
2022-07-28T05:43:22.797Z,47.48
2022-07-28T05:45:52.680Z,48.03
2022-07-28T05:48:22.542Z,48.29
2022-07-28T05:50:51.940Z,47.55
2022-07-28T05:53:21.176Z,48.09
2022-07-28T05:55:59.784Z,48.43
2022-07-28T05:58:29.118Z,48.98
2022-07-28T06:01:01.993Z,48.55
2022-07-28T06:03:33.586Z,48.70
2022-07-28T06:06:14.574Z,48.00
2022-07-28T06:08:43.595Z,48.10
2022-07-28T06:11:11.964Z,48.41
2022-07-28T06:13:49.924Z,47.86
2022-07-28T06:16:20.781Z,47.86
2022-07-28T06:18:49.323Z,48.20
2022-07-28T06:21:17.474Z,47.95
2022-07-28T06:23:46.148Z,47.64
2022-07-28T06:26:14.329Z,48.38
2022-07-28T06:28:42.443Z,47.83
2022-07-28T06:31:10.627Z,48.22
2022-07-28T06:33:40.180Z,48.51
2022-07-28T06:36:08.373Z,48.50
2022-07-28T06:38:37.056Z,48.55
2022-07-28T06:41:05.286Z,48.69
2022-07-28T06:43:38.333Z,48.79
2022-07-28T06:46:07.395Z,48.67
2022-07-28T06:48:37.608Z,49.24
2022-07-28T06:51:07.483Z,48.88
2022-07-28T06:53:36.033Z,47.53
2022-07-28T06:56:06.244Z,47.51
2022-07-28T06:58:34.401Z,48.22
2022-07-28T07:01:07.323Z,47.33
2022-07-28T07:03:36.046Z,46.54
2022-07-28T07:06:04.410Z,46.45
2022-07-28T07:08:34.210Z,46.75
2022-07-28T07:11:02.489Z,46.37
2022-07-28T07:13:30.741Z,46.03
2022-07-28T07:15:58.934Z,46.11
2022-07-28T07:18:27.468Z,46.19
2022-07-28T07:20:58.203Z,46.45
2022-07-28T07:23:26.373Z,45.66
2022-07-28T07:25:56.235Z,45.78
2022-07-28T07:28:24.405Z,46.17
2022-07-28T07:30:52.631Z,45.96
2022-07-28T07:33:20.826Z,46.02
2022-07-28T07:35:48.956Z,45.06
2022-07-28T07:38:17.057Z,45.22
2022-07-28T07:40:45.373Z,44.62
2022-07-28T07:43:14.808Z,45.07
2022-07-28T07:45:42.953Z,44.26
2022-07-28T07:48:11.107Z,43.86
2022-07-28T07:50:39.381Z,44.16
2022-07-28T07:53:07.668Z,44.05
2022-07-28T07:55:37.782Z,44.33
2022-07-28T07:58:06.677Z,44.30
2022-07-28T08:00:36.134Z,43.91
2022-07-28T08:03:04.467Z,43.83
2022-07-28T08:05:39.424Z,43.93
2022-07-28T08:08:08.270Z,43.50
2022-07-28T08:10:37.774Z,43.63
2022-07-28T08:13:07.453Z,43.49
2022-07-28T08:15:37.096Z,43.16
2022-07-28T08:18:05.745Z,43.28
2022-07-28T08:20:33.884Z,43.20
2022-07-28T08:23:02.329Z,43.07
2022-07-28T08:25:30.487Z,42.49
2022-07-28T08:27:58.578Z,42.62
2022-07-28T08:30:32.012Z,42.66
2022-07-28T08:33:02.858Z,41.78
2022-07-28T08:35:34.531Z,41.29
2022-07-28T08:38:04.544Z,41.81
2022-07-28T08:40:33.514Z,41.06
2022-07-28T08:43:16.222Z,41.22
2022-07-28T08:45:48.903Z,41.20
2022-07-28T08:48:22.593Z,40.96
2022-07-28T08:50:52.420Z,39.97
2022-07-28T08:53:21.850Z,39.54
2022-07-28T08:55:50.238Z,39.56
2022-07-28T08:58:18.983Z,39.26
2022-07-28T09:00:48.450Z,39.21
2022-07-28T09:03:18.270Z,38.92
2022-07-28T09:05:47.465Z,38.37
2022-07-28T09:08:18.695Z,38.91
2022-07-28T09:10:47.099Z,38.64
2022-07-28T09:13:16.565Z,38.45
2022-07-28T09:15:46.546Z,38.32
2022-07-28T09:18:15.658Z,38.75
2022-07-28T09:20:46.118Z,38.53
2022-07-28T09:23:42.837Z,37.59
2022-07-28T09:26:12.181Z,37.26
2022-07-28T09:28:55.288Z,37.25
2022-07-28T09:31:26.541Z,37.01
2022-07-28T09:34:03.972Z,37.13
2022-07-28T09:36:41.421Z,37.02
2022-07-28T09:39:10.493Z,36.61
2022-07-28T09:41:49.245Z,36.82
2022-07-28T09:44:20.487Z,36.74
2022-07-28T09:46:49.260Z,36.36
2022-07-28T09:49:18.093Z,35.61
2022-07-28T09:52:01.698Z,35.86
2022-07-28T09:54:29.853Z,35.83
2022-07-28T09:56:58.153Z,36.23
2022-07-28T09:59:26.578Z,35.85
2022-07-28T10:02:00.982Z,36.22
2022-07-28T10:04:36.215Z,35.50
2022-07-28T10:07:09.988Z,35.68
2022-07-28T10:09:39.554Z,35.45
2022-07-28T10:12:23.300Z,35.91
2022-07-28T10:14:53.479Z,35.31
2022-07-28T10:17:29.024Z,35.48
2022-07-28T10:20:01.360Z,35.58
2022-07-28T10:22:33.988Z,35.31
2022-07-28T10:25:06.701Z,34.88
2022-07-28T10:27:35.105Z,35.10
2022-07-28T10:30:06.286Z,34.75
2022-07-28T10:32:41.607Z,34.71
2022-07-28T10:35:12.791Z,34.50
2022-07-28T10:37:51.745Z,34.39
2022-07-28T10:40:27.574Z,34.32
2022-07-28T10:42:57.488Z,34.25
2022-07-28T10:45:48.159Z,34.48
2022-07-28T10:48:15.752Z,33.46
2022-07-28T10:50:45.492Z,33.60
2022-07-28T10:53:28.738Z,33.51
2022-07-28T10:56:06.123Z,34.51
2022-07-28T10:58:49.402Z,33.61
2022-07-28T11:01:51.624Z,33.96
2022-07-28T11:04:58.998Z,33.26
2022-07-28T11:07:40.543Z,33.04
2022-07-28T11:10:30.924Z,33.03
2022-07-28T11:13:00.608Z,33.06
2022-07-28T11:15:35.756Z,33.26
2022-07-28T11:18:10.247Z,32.96
2022-07-28T11:21:07.824Z,32.78
2022-07-28T11:23:47.848Z,32.80
2022-07-28T11:26:37.652Z,33.11
2022-07-28T11:29:22.815Z,32.78
2022-07-28T11:32:03.973Z,32.52
2022-07-28T11:35:19.975Z,32.43
2022-07-28T11:38:14.429Z,32.56
2022-07-28T11:40:45.207Z,32.26
2022-07-28T11:43:39.394Z,32.51
2022-07-28T11:46:25.541Z,32.48
2022-07-28T11:49:21.704Z,32.83
2022-07-28T11:52:22.908Z,32.46
2022-07-28T11:54:57.016Z,32.63
2022-07-28T11:57:27.739Z,32.94
2022-07-28T12:00:02.153Z,32.90
2022-07-28T12:02:33.305Z,33.16
2022-07-28T12:05:08.127Z,32.75
2022-07-28T12:07:40.605Z,32.08
2022-07-28T12:10:53.799Z,32.62
2022-07-28T12:13:28.894Z,31.89
2022-07-28T12:15:58.482Z,31.78
2022-07-28T12:18:26.674Z,32.15
2022-07-28T12:20:55.512Z,32.02
2022-07-28T12:23:45.533Z,32.17
2022-07-28T12:26:31.378Z,31.69
2022-07-28T12:29:00.112Z,31.48
2022-07-28T12:31:33.206Z,31.52
2022-07-28T12:34:01.756Z,31.77
2022-07-28T12:36:30.645Z,31.54
2022-07-28T12:38:59.703Z,31.62
2022-07-28T12:41:33.695Z,31.35
2022-07-28T12:44:05.851Z,30.88
2022-07-28T12:46:35.932Z,31.10
2022-07-28T12:49:04.132Z,31.01
2022-07-28T12:51:34.747Z,30.91
2022-07-28T12:54:03.923Z,31.41
2022-07-28T12:56:32.939Z,31.18
2022-07-28T12:59:09.495Z,30.76
2022-07-28T13:01:51.927Z,30.83
2022-07-28T13:04:46.407Z,30.57
2022-07-28T13:07:24.462Z,30.57
2022-07-28T13:10:05.150Z,30.39
2022-07-28T13:12:33.862Z,30.27
2022-07-28T13:15:06.840Z,30.28
2022-07-28T13:20:34.370Z,30.10
2022-07-28T13:23:02.298Z,30.38
2022-07-28T13:25:30.286Z,30.45
2022-07-28T13:28:00.177Z,30.19
2022-07-28T13:30:28.130Z,29.37
2022-07-28T13:32:58.350Z,29.34
2022-07-28T13:35:26.421Z,29.75
2022-07-28T13:37:55.754Z,29.78
2022-07-28T13:40:23.999Z,30.16
2022-07-28T13:42:53.139Z,29.99
2022-07-28T13:45:25.179Z,29.79
2022-07-28T13:47:58.067Z,29.51
2022-07-28T13:50:26.978Z,29.36
2022-07-28T13:52:56.474Z,29.23
2022-07-28T13:55:24.655Z,29.30
2022-07-28T13:57:55.222Z,29.04
2022-07-28T14:00:24.947Z,29.50
2022-07-28T14:02:53.187Z,28.94
2022-07-28T14:05:21.534Z,29.30
2022-07-28T14:07:49.692Z,28.98
2022-07-28T14:10:19.445Z,28.51
2022-07-28T14:12:47.553Z,29.04
2022-07-28T14:15:16.209Z,28.59
2022-07-28T14:17:45.891Z,28.59
2022-07-28T14:20:15.626Z,27.89
2022-07-28T14:22:46.615Z,27.83
2022-07-28T14:25:20.601Z,28.22
2022-07-28T14:27:51.877Z,28.13
2022-07-28T14:30:20.889Z,28.61
2022-07-28T14:32:49.627Z,28.63
2022-07-28T14:35:17.834Z,28.51
2022-07-28T14:38:23.543Z,28.46
2022-07-28T14:40:36.856Z,28.42
2022-07-28T14:43:10.175Z,28.36
2022-07-28T14:46:09.283Z,28.43
2022-07-28T14:48:27.103Z,28.49
2022-07-28T14:50:56.999Z,28.22
2022-07-28T14:53:28.012Z,27.99
2022-07-28T14:55:56.778Z,27.69
2022-07-28T14:58:26.258Z,27.70
2022-07-28T15:00:54.910Z,27.68
2022-07-28T15:03:23.088Z,27.90
2022-07-28T15:05:51.279Z,28.20
2022-07-28T15:08:19.344Z,27.96
2022-07-28T15:10:49.120Z,27.76
2022-07-28T15:13:17.282Z,28.14
2022-07-28T15:15:47.006Z,27.86
2022-07-28T15:18:15.108Z,27.69
2022-07-28T15:20:43.447Z,28.10
2022-07-28T15:23:11.631Z,27.87
2022-07-28T15:25:39.816Z,28.20
2022-07-28T15:28:07.953Z,28.49
2022-07-28T15:30:36.032Z,28.10
2022-07-28T15:33:11.948Z,28.54
2022-07-28T15:35:58.989Z,27.97
2022-07-28T15:38:29.450Z,28.10
2022-07-28T15:40:59.545Z,27.75
2022-07-28T15:43:27.800Z,27.64
2022-07-28T15:45:57.502Z,27.50
2022-07-28T15:48:27.013Z,27.88
2022-07-28T15:50:55.405Z,28.10
2022-07-28T15:53:23.728Z,28.25
2022-07-28T15:55:52.164Z,27.88
2022-07-28T15:58:21.550Z,27.90
2022-07-28T16:00:50.017Z,27.92
2022-07-28T16:03:18.259Z,27.71
2022-07-28T16:05:49.776Z,27.96
2022-07-28T16:08:22.869Z,28.20
2022-07-28T16:10:53.115Z,28.56
2022-07-28T16:13:36.035Z,28.83
2022-07-28T16:16:08.257Z,27.93
2022-07-28T16:18:37.430Z,28.49
2022-07-28T16:21:08.233Z,28.02
2022-07-28T16:23:37.123Z,28.02
2022-07-28T16:26:07.758Z,28.29
2022-07-28T16:28:36.410Z,28.90
2022-07-28T16:31:04.626Z,28.72
2022-07-28T16:33:33.038Z,28.69
2022-07-28T16:36:02.261Z,28.90
2022-07-28T16:38:31.718Z,29.21
2022-07-28T16:40:59.761Z,29.60
2022-07-28T16:43:27.731Z,29.53
2022-07-28T16:45:55.844Z,29.62
2022-07-28T16:48:24.131Z,29.82
2022-07-28T16:50:52.224Z,30.11
2022-07-28T16:53:20.257Z,30.08
2022-07-28T16:55:50.227Z,29.51
2022-07-28T16:58:19.914Z,29.24
2022-07-28T17:00:47.973Z,29.31
2022-07-28T17:03:16.900Z,29.38
2022-07-28T17:05:45.102Z,29.43
2022-07-28T17:08:13.388Z,29.04
2022-07-28T17:10:41.562Z,29.51
2022-07-28T17:13:12.020Z,29.06
2022-07-28T17:15:41.481Z,29.59
2022-07-28T17:18:09.638Z,29.84
2022-07-28T17:20:41.879Z,29.75
2022-07-28T17:23:10.104Z,29.61
2022-07-28T17:28:28.458Z,29.59
2022-07-28T17:30:56.579Z,29.89
2022-07-28T17:33:24.802Z,29.89
2022-07-28T17:35:54.995Z,29.72
2022-07-28T17:38:29.522Z,31.25
2022-07-28T17:41:03.696Z,32.06
2022-07-28T17:43:33.195Z,32.91
2022-07-28T17:46:02.927Z,33.01
2022-07-28T17:48:38.263Z,33.16
2022-07-28T17:51:06.556Z,32.92
2022-07-28T17:53:39.337Z,33.35
2022-07-28T17:56:08.579Z,33.86
2022-07-28T17:58:39.481Z,34.63
2022-07-28T18:01:12.074Z,34.66
2022-07-28T18:03:56.841Z,34.78
2022-07-28T18:06:34.320Z,34.58
2022-07-28T18:09:06.624Z,34.93
2022-07-28T18:11:57.798Z,34.78
2022-07-28T18:14:28.604Z,35.33
2022-07-28T18:16:57.497Z,35.02
2022-07-28T18:19:26.008Z,35.19
2022-07-28T18:21:54.163Z,35.13
2022-07-28T18:24:23.070Z,35.19
2022-07-28T18:26:52.510Z,35.47
2022-07-28T18:29:21.851Z,35.92
2022-07-28T18:31:52.638Z,36.20
2022-07-28T18:34:24.994Z,36.20
2022-07-28T18:36:54.137Z,36.29
2022-07-28T18:39:22.643Z,36.37
2022-07-28T18:41:50.695Z,36.60
2022-07-28T18:44:19.984Z,37.06
2022-07-28T18:46:49.552Z,36.68
2022-07-28T18:49:19.970Z,36.65
2022-07-28T18:51:49.268Z,37.12
2022-07-28T18:54:24.762Z,36.99
2022-07-28T18:56:56.390Z,37.14
2022-07-28T18:59:24.515Z,37.11
2022-07-28T19:01:52.732Z,37.48
2022-07-28T19:04:22.143Z,37.74
2022-07-28T19:06:50.832Z,38.05
2022-07-28T19:09:19.057Z,37.76
2022-07-28T19:11:47.064Z,38.13
2022-07-28T19:14:15.634Z,38.17
2022-07-28T19:16:44.438Z,38.41
2022-07-28T19:19:12.891Z,38.52
2022-07-28T19:21:43.262Z,38.87
2022-07-28T19:24:12.581Z,38.71
2022-07-28T19:26:41.356Z,38.94
2022-07-28T19:29:09.652Z,39.20
2022-07-28T19:31:37.776Z,38.49
2022-07-28T19:34:05.781Z,39.02
2022-07-28T19:36:33.843Z,39.46
2022-07-28T19:39:03.223Z,39.38
2022-07-28T19:41:31.575Z,39.61
2022-07-28T19:43:59.596Z,39.84
2022-07-28T19:46:27.602Z,39.97
2022-07-28T19:48:56.197Z,39.82
2022-07-28T19:51:24.918Z,39.64
2022-07-28T19:53:52.970Z,39.97
2022-07-28T19:56:27.586Z,40.04
2022-07-28T19:58:58.849Z,40.21
2022-07-28T20:01:27.202Z,40.29
2022-07-28T20:04:03.731Z,40.36
2022-07-28T20:06:33.294Z,40.41
2022-07-28T20:09:01.859Z,40.89
2022-07-28T20:11:32.795Z,41.19
2022-07-28T20:14:02.018Z,41.55
2022-07-28T20:16:30.405Z,41.35
2022-07-28T20:18:58.608Z,41.85
2022-07-28T20:21:27.074Z,41.77
2022-07-28T20:23:56.964Z,41.52
2022-07-28T20:26:26.224Z,42.05
2022-07-28T20:28:58.252Z,42.35
2022-07-28T20:31:26.412Z,42.26
2022-07-28T20:33:54.548Z,42.67
2022-07-28T20:36:26.370Z,42.68
2022-07-28T20:38:57.589Z,42.80
2022-07-28T20:41:25.677Z,42.61
2022-07-28T20:44:29.752Z,42.56
2022-07-28T20:46:43.486Z,42.78
2022-07-28T20:49:11.632Z,42.68
2022-07-28T20:51:39.776Z,42.80
2022-07-28T20:54:18.964Z,42.51
2022-07-28T20:56:47.079Z,42.39
2022-07-28T20:59:16.533Z,42.73
2022-07-28T21:01:44.721Z,42.82
2022-07-28T21:04:13.273Z,42.93
2022-07-28T21:06:43.676Z,43.37
2022-07-28T21:09:19.942Z,42.82
2022-07-28T21:11:48.288Z,43.16
2022-07-28T21:14:18.026Z,43.28
2022-07-28T21:16:46.502Z,43.78
2022-07-28T21:19:14.555Z,44.09
2022-07-28T21:21:42.514Z,44.19
2022-07-28T21:24:10.698Z,43.80
2022-07-28T21:26:38.768Z,43.93
2022-07-28T21:29:12.422Z,43.86
2022-07-28T21:32:03.721Z,43.61
2022-07-28T21:34:34.345Z,44.04
2022-07-28T21:37:03.023Z,44.20
2022-07-28T21:39:31.125Z,44.40
2022-07-28T21:41:59.687Z,44.25
2022-07-28T21:44:27.995Z,44.39
2022-07-28T21:46:57.389Z,44.62
2022-07-28T21:49:28.533Z,44.36
2022-07-28T21:51:56.622Z,44.34
2022-07-28T21:54:24.802Z,44.66
2022-07-28T21:56:52.869Z,44.68
2022-07-28T21:59:20.926Z,44.77
2022-07-28T22:01:48.989Z,44.88
2022-07-28T22:04:19.491Z,44.87
2022-07-28T22:06:47.865Z,44.67
2022-07-28T22:09:16.010Z,44.49
2022-07-28T22:11:44.163Z,44.04
2022-07-28T22:14:12.366Z,44.25
2022-07-28T22:16:40.731Z,44.46
2022-07-28T22:19:11.738Z,44.54
2022-07-28T22:21:41.171Z,44.74
2022-07-28T22:24:09.867Z,44.90
2022-07-28T22:26:38.077Z,44.62
2022-07-28T22:29:06.083Z,45.27
2022-07-28T22:31:34.226Z,45.48
2022-07-28T22:34:02.335Z,45.35
2022-07-28T22:36:30.419Z,45.45
2022-07-28T22:38:59.862Z,45.17
2022-07-28T22:41:28.121Z,45.52
2022-07-28T22:43:56.154Z,45.39
2022-07-28T22:46:24.449Z,44.79
2022-07-28T22:48:52.641Z,45.55
2022-07-28T22:51:20.868Z,45.55
2022-07-28T22:53:49.226Z,45.77
2022-07-28T22:56:18.866Z,46.09
2022-07-28T22:58:47.047Z,45.79
2022-07-28T23:01:15.168Z,46.23
2022-07-28T23:03:43.440Z,46.43
2022-07-28T23:06:13.784Z,46.88
2022-07-28T23:08:41.847Z,46.32
2022-07-28T23:11:09.905Z,46.65
2022-07-28T23:13:39.350Z,46.28
2022-07-28T23:16:09.459Z,46.50
2022-07-28T23:18:40.217Z,46.82
2022-07-28T23:21:09.229Z,46.57
2022-07-28T23:23:37.619Z,46.65
2022-07-28T23:26:06.596Z,46.50
2022-07-28T23:28:36.180Z,46.67
2022-07-28T23:31:06.193Z,46.68
2022-07-28T23:33:55.236Z,46.75
2022-07-28T23:36:26.702Z,46.62
2022-07-28T23:38:56.970Z,46.64
2022-07-28T23:41:26.342Z,47.00
2022-07-28T23:43:54.732Z,46.80
2022-07-28T23:46:24.380Z,46.78
2022-07-28T23:48:52.663Z,46.71
2022-07-28T23:51:22.556Z,46.29
2022-07-28T23:54:06.865Z,46.24
2022-07-28T23:56:34.979Z,46.48
2022-07-28T23:59:03.092Z,45.97
